Time+07,TemperatureF,Dew PointF,Humidity,Sea Level PressureIn,VisibilityMPH,Wind Direction,Wind SpeedMPH,Gust SpeedMPH,PrecipitationIn,Events,Conditions,WindDirDegrees,DateUTC
12:00 AM,84.2,75.2,74,29.77,5.6,WNW,8.1,-,N/A,,Mostly Cloudy,290,2013-05-02 17:00:00
12:30 AM,84.2,75.2,74,29.77,5.6,WNW,8.1,-,N/A,,Mostly Cloudy,300,2013-05-02 17:30:00
1:00 AM,86,74,61,29.73,6,NW,5.8,,,,Scattered Clouds,310,2013-05-02 18:00:00
1:00 AM,84.2,75.2,74,29.77,5.6,WNW,6.9,-,N/A,,Mostly Cloudy,290,2013-05-02 18:00:00
1:30 AM,84.2,73.4,70,29.77,5.6,West,10.4,-,N/A,,Mostly Cloudy,280,2013-05-02 18:30:00
2:00 AM,84.2,73.4,70,29.74,5.0,WSW,6.9,-,N/A,,Mostly Cloudy,250,2013-05-02 19:00:00
2:30 AM,82.4,75.2,79,29.74,5.0,WSW,5.8,-,N/A,,Mostly Cloudy,250,2013-05-02 19:30:00
3:00 AM,80.6,75.2,84,29.74,5.0,Variable,1.2,-,N/A,,Mostly Cloudy,0,2013-05-02 20:00:00
3:30 AM,82.4,75.2,79,29.71,5.0,West,6.9,-,N/A,,Mostly Cloudy,280,2013-05-02 20:30:00
4:00 AM,82.4,75.2,79,29.71,5.0,WNW,4.6,-,N/A,,Mostly Cloudy,290,2013-05-02 21:00:00
4:30 AM,82.4,75.2,79,29.74,5.0,West,5.8,-,N/A,,Mostly Cloudy,280,2013-05-02 21:30:00
5:00 AM,80.6,75.2,84,29.74,5.0,Calm,Calm,-,N/A,,Mostly Cloudy,0,2013-05-02 22:00:00
5:30 AM,80.6,75.2,84,29.74,5.0,Calm,Calm,-,N/A,,Mostly Cloudy,0,2013-05-02 22:30:00
6:00 AM,80.6,75.2,84,29.74,5.0,Variable,1.2,-,N/A,,Mostly Cloudy,0,2013-05-02 23:00:00
6:30 AM,78.8,75.2,89,29.77,1.9,North,11.5,23.0,N/A,Rain,Rain,350,2013-05-02 23:30:00
7:00 AM,77,76,94,29.73,5,SW,5.8,,,Rain,Light Rain,230,2013-05-03 00:00:00
7:00 AM,77.0,73.4,89,29.77,3.1,Variable,5.8,-,N/A,Rain,Rain,0,2013-05-03 00:00:00
7:30 AM,78.8,75.2,89,29.77,4.3,WNW,3.5,-,N/A,Rain,Light Rain,300,2013-05-03 00:30:00
8:00 AM,80.6,77.0,89,29.80,5.0,Variable,1.2,-,N/A,,Mostly Cloudy,0,2013-05-03 01:00:00
9:00 AM,84.2,78.8,84,29.83,5.0,North,5.8,-,N/A,,Mostly Cloudy,350,2013-05-03 02:00:00
9:30 AM,87.8,77.0,70,29.80,5.0,West,6.9,-,N/A,,Mostly Cloudy,280,2013-05-03 02:30:00
10:00 AM,82.4,75.2,79,29.83,4.3,WSW,9.2,-,N/A,,Mostly Cloudy,250,2013-05-03 03:00:00
10:30 AM,82.4,73.4,74,29.83,5.0,Variable,3.5,-,N/A,Thunderstorm,Thunderstorm,0,2013-05-03 03:30:00
11:00 AM,84.2,77.0,79,29.83,5.0,South,3.5,-,N/A,,Mostly Cloudy,190,2013-05-03 04:00:00
11:30 AM,86.0,77.0,74,29.80,5.0,West,6.9,-,N/A,,Mostly Cloudy,260,2013-05-03 04:30:00
12:00 PM,87.8,77.0,70,29.80,4.3,West,9.2,-,N/A,Thunderstorm,Thunderstorm,260,2013-05-03 05:00:00
1:00 PM,78,77,97,29.79,2,West,13.8,,,Rain-Thunderstorm,Thunderstorms and Rain,280,2013-05-03 06:00:00
1:00 PM,77.0,75.2,94,29.80,0.9,WNW,17.3,28.8,N/A,Rain-Thunderstorm,Thunderstorms and Rain,300,2013-05-03 06:00:00
1:30 PM,75.2,73.4,94,29.77,1.9,NNW,8.1,-,N/A,Rain,Rain,330,2013-05-03 06:30:00
2:00 PM,77.0,73.4,89,29.77,3.1,Variable,3.5,-,N/A,Rain,Rain,0,2013-05-03 07:00:00
2:30 PM,78.8,75.2,89,29.74,4.3,Calm,Calm,-,N/A,,Mostly Cloudy,0,2013-05-03 07:30:00
3:00 PM,78.8,75.2,89,29.74,5.0,WNW,8.1,-,N/A,,Mostly Cloudy,290,2013-05-03 08:00:00
3:30 PM,80.6,75.2,84,29.71,5.0,NW,5.8,-,N/A,,Mostly Cloudy,310,2013-05-03 08:30:00
4:30 PM,84.2,75.2,74,29.71,5.0,Variable,3.5,-,N/A,,Mostly Cloudy,0,2013-05-03 09:30:00
5:00 PM,84.2,75.2,74,29.71,5.6,Variable,2.3,-,N/A,,Mostly Cloudy,0,2013-05-03 10:00:00
5:30 PM,84.2,73.4,70,29.71,5.6,West,6.9,-,N/A,,Mostly Cloudy,280,2013-05-03 10:30:00
6:00 PM,82.4,75.2,79,29.71,5.6,WNW,6.9,-,N/A,,Mostly Cloudy,290,2013-05-03 11:00:00
6:30 PM,80.6,75.2,84,29.71,5.6,WNW,4.6,-,N/A,,Mostly Cloudy,290,2013-05-03 11:30:00
7:00 PM,83,78,82,29.70,6,West,4.6,,,,Mist,280,2013-05-03 12:00:00
7:00 PM,80.6,77.0,89,29.74,5.6,West,4.6,-,N/A,,Mostly Cloudy,280,2013-05-03 12:00:00
7:30 PM,80.6,75.2,84,29.74,5.6,NW,3.5,-,N/A,,Mostly Cloudy,310,2013-05-03 12:30:00
8:00 PM,78.8,75.2,89,29.74,5.6,Variable,1.2,-,N/A,,Mostly Cloudy,0,2013-05-03 13:00:00
8:30 PM,78.8,75.2,89,29.77,5.0,Calm,Calm,-,N/A,,Mostly Cloudy,0,2013-05-03 13:30:00
9:00 PM,78.8,75.2,89,29.77,5.0,Calm,Calm,-,N/A,,Mostly Cloudy,0,2013-05-03 14:00:00
9:30 PM,78.8,77.0,94,29.80,5.0,Calm,Calm,-,N/A,,Mostly Cloudy,0,2013-05-03 14:30:00
10:00 PM,78.8,77.0,94,29.80,5.0,Calm,Calm,-,N/A,,Mostly Cloudy,0,2013-05-03 15:00:00
10:30 PM,78.8,75.2,89,29.80,5.0,Calm,Calm,-,N/A,,Mostly Cloudy,0,2013-05-03 15:30:00
11:00 PM,77.0,75.2,94,29.80,5.0,Variable,2.3,-,N/A,,Mostly Cloudy,0,2013-05-03 16:00:00
11:30 PM,77.0,75.2,94,29.80,5.0,Calm,Calm,-,N/A,,Mostly Cloudy,0,2013-05-03 16:30:00